KLEE

Leesburg International Airport

Leesburg, Florida, USA
METAR KLEE 191453Z 18005KT 10SM SCT025 30/24 A3011 RMK AO2 SLP193 T03000239 51012
Observed Flight Rules
Aug-19 @ 14:53 UTC (44 minutes ago) Visual Flight Rules
Wind Visibility Clouds
180° at 5 knots 10 miles
  • Scattered at 2,500' AGL
Temperatures Readings
Current 30°C / 86°F
Dewpoint 24°C / 75°F
Humidity 70%
Altimeter 30.11" Hg
Pressure 1019.3 hPa
Elevation 23
METAR KLEE 191453Z 18005KT 10SM SCT025 30/24 A3011 RMK AO2 SLP193 T03000239 51012
Observed Flight Rules
Aug-19 @ 14:53 UTC
(44 minutes ago)
VFR
Wind Visibility
180° at 5 knots 10 miles
Clouds
  • Scattered at 2,500' AGL
Temperature Dewpoint
30°C / 86°F 24°C / 75°F
Humidity Altimeter Pressure
70% 30.11" Hg 1019.3 hPa